Observations for ALDERNEY CHANNEL IS, United Kingdom (EGJA)

EGJA 161750Z 08008KT CAVOK 17/13 Q1018  
EGJA 161720Z 08009KT CAVOK 18/13 Q1018  
EGJA 161620Z 07010KT CAVOK 18/13 Q1019  
EGJA 161550Z 05009KT CAVOK 18/13 Q1019  
EGJA 161520Z 04009KT CAVOK 18/13 Q1019  
EGJA 161450Z 04009KT 010V070 CAVOK 18/13 Q1019  
EGJA 161420Z 04009KT 010V070 CAVOK 18/13 Q1019  
EGJA 161350Z 04009KT 010V070 CAVOK 18/13 Q1019  
EGJA 161320Z 04009KT 010V070 CAVOK 18/13 Q1019  
EGJA 161250Z 04009KT CAVOK 19/13 Q1019  
EGJA 161220Z 04011KT 9999 FEW012 18/13 Q1019
EGJA 161150Z 05011KT 9999 FEW012 19/14 Q1020
EGJA 161120Z 04010KT 360V070 9999 FEW012 18/14 Q1020
EGJA 161050Z 06010KT 9999 FEW012 18/14 Q1020
EGJA 161020Z 05009KT 020V090 9999 FEW012 18/14 Q1020
EGJA 160950Z 06010KT 9999 FEW010 17/13 Q1020
EGJA 160920Z 06010KT 9999 SCT009 18/14 Q1020
EGJA 160850Z 07011KT 9999 SCT009 17/14 Q1020
EGJA 160820Z 05008KT 020V090 9999 SCT008 17/14 Q1020
EGJA 160750Z 06009KT 9999 SCT009 16/14 Q1020
EGJA 160720Z 05009KT 9999 SCT008 15/14 Q1020
EGJA 160650Z 05008KT 9999 FEW007 SCT010 15/14 Q1020 
EGJA 160620Z 04006KT 9999 BKN007 15/14 Q1020
EGJA 160550Z 04006KT 9999 BKN007 15/14 Q1020